Time;durP1;ratioP1;P1;durP2;ratioP2;P2;SDS_P1;SDS_P2;PMS_P1;PMS_P2;Temp;Humidity;BMP_temperature;BMP_pressure;BME280_temperature;BME280_humidity;BME280_pressure;Samples;Min_cycle;Max_cycle;Signal;HPM_P1;HPM_P2
2021/12/10 00:00:31;;;;;;;102.18;45.38;;;;;;;1.96;82.33;99438.53;4993771;28;20105;-77
2021/12/10 00:02:57;;;;;;;100.20;45.65;;;;;;;1.99;82.52;99430.75;4993580;28;20047;-78
2021/12/10 00:05:28;;;;;;;108.60;48.95;;;;;;;1.99;82.49;99435.97;4992843;28;20036;-78
2021/12/10 00:07:55;;;;;;;110.47;47.58;;;;;;;2.07;82.16;99439.56;4992155;28;20089;-77
2021/12/10 00:10:26;;;;;;;103.95;46.88;;;;;;;2.09;82.35;99429.13;5000837;28;20452;-78
2021/12/10 00:12:52;;;;;;;99.85;44.78;;;;;;;2.13;81.75;99417.91;4993576;28;20038;-77
2021/12/10 00:15:21;;;;;;;103.45;46.65;;;;;;;2.11;81.82;99415.28;4991392;28;20048;-78
2021/12/10 00:17:47;;;;;;;98.38;45.25;;;;;;;2.11;82.00;99409.22;4993463;28;20062;-78
2021/12/10 00:20:15;;;;;;;109.38;48.38;;;;;;;2.04;81.97;99397.84;4993360;28;20049;-78
2021/12/10 00:22:50;;;;;;;99.35;44.67;;;;;;;1.96;81.73;99404.72;4992082;28;20039;-78
2021/12/10 00:25:19;;;;;;;103.45;44.25;;;;;;;1.95;82.34;99400.38;4991861;28;20042;-77
2021/12/10 00:27:47;;;;;;;107.60;47.22;;;;;;;1.95;82.67;99403.84;4992647;28;20038;-77
2021/12/10 00:30:20;;;;;;;114.65;45.40;;;;;;;1.92;82.58;99406.44;4990121;28;20408;-77
2021/12/10 00:32:48;;;;;;;;;;;;;;;1.89;82.88;99402.94;5000490;28;20026;-77
2021/12/10 00:35:23;;;;;;;106.40;44.83;;;;;;;1.91;82.60;99396.88;4992774;28;19913;-78
2021/12/10 00:37:48;;;;;;;100.68;43.50;;;;;;;1.97;82.36;99393.47;4989964;28;20595;-78
2021/12/10 00:40:18;;;;;;;101.75;44.45;;;;;;;1.97;82.74;99393.47;4991782;28;20129;-78
2021/12/10 00:42:43;;;;;;;98.10;43.03;;;;;;;2.00;82.22;99396.09;4992942;28;20042;-78
2021/12/10 00:45:12;;;;;;;94.80;41.95;;;;;;;2.04;82.16;99397.84;4991448;28;20042;-77
2021/12/10 00:47:39;;;;;;;103.50;45.88;;;;;;;2.09;82.11;99396.16;4989253;28;20085;-78
2021/12/10 00:50:09;;;;;;;108.00;47.80;;;;;;;2.06;81.49;99396.16;4989067;28;20066;-76
2021/12/10 00:52:34;;;;;;;105.00;45.67;;;;;;;2.07;81.75;99390.09;4989503;28;20412;-78
2021/12/10 00:54:59;;;;;;;106.88;45.83;;;;;;;2.06;82.07;99390.94;4992312;28;20129;-78
2021/12/10 00:57:25;;;;;;;98.03;44.03;;;;;;;2.06;81.76;99390.94;4992708;28;20030;-78
2021/12/10 00:59:51;;;;;;;103.63;43.58;;;;;;;2.17;82.14;99388.44;4992641;28;20034;-78
2021/12/10 01:02:21;;;;;;;100.88;42.80;;;;;;;2.21;81.69;99378.94;4992633;28;20504;-77
2021/12/10 01:04:50;;;;;;;106.47;45.60;;;;;;;2.19;81.84;99369.38;4992483;28;20129;-78
2021/12/10 01:07:20;;;;;;;96.85;43.28;;;;;;;2.21;81.96;99368.53;4991695;28;20493;-77
2021/12/10 01:09:49;;;;;;;99.95;44.28;;;;;;;2.18;81.34;99370.25;4992516;28;20042;-78
2021/12/10 01:12:24;;;;;;;100.60;44.15;;;;;;;2.10;82.04;99366.69;4992461;28;20038;-77
2021/12/10 01:15:33;;;;;;;97.30;43.20;;;;;;;2.11;82.15;99363.22;4988780;28;20511;-78
2021/12/10 01:26:26;;;;;;;103.93;44.47;;;;;;;2.05;82.39;99342.38;4988084;28;20049;-77
2021/12/10 01:28:56;;;;;;;102.45;42.85;;;;;;;2.10;82.53;99330.25;4990467;28;20133;-78
2021/12/10 01:31:22;;;;;;;103.53;43.38;;;;;;;2.16;81.82;99332.91;4992021;28;20488;-78
2021/12/10 01:33:49;;;;;;;94.38;40.92;;;;;;;2.15;81.82;99323.38;4992146;28;20030;-78
2021/12/10 01:36:15;;;;;;;120.65;49.95;;;;;;;2.11;82.02;99321.59;4990897;28;20477;-78
2021/12/10 01:38:44;;;;;;;105.95;44.88;;;;;;;2.03;82.67;99314.59;4990649;28;20041;-77
2021/12/10 01:41:13;;;;;;;102.07;44.60;;;;;;;2.06;82.77;99312.88;4990059;28;20041;-77
2021/12/10 01:43:40;;;;;;;92.85;41.72;;;;;;;2.12;82.31;99310.34;4987963;28;20034;-77
2021/12/10 01:46:11;;;;;;;105.18;45.13;;;;;;;2.08;82.88;99299.88;4989849;28;20041;-78
2021/12/10 01:49:03;;;;;;;96.95;42.90;;;;;;;2.11;82.38;99297.28;4995302;28;20117;-77
2021/12/10 01:51:33;;;;;;;92.13;42.45;;;;;;;2.23;81.84;99288.69;4992219;28;20137;-78
2021/12/10 01:54:10;;;;;;;96.78;44.40;;;;;;;2.14;81.80;99279.97;4991011;28;20627;-77
2021/12/10 01:56:39;;;;;;;99.45;45.30;;;;;;;2.11;82.62;99276.47;4991955;28;20045;-78
2021/12/10 01:59:09;;;;;;;99.95;45.17;;;;;;;2.05;82.59;99268.63;4989075;28;20073;-78
2021/12/10 02:01:41;;;;;;;91.10;41.72;;;;;;;2.06;82.72;99266.00;4991918;28;20694;-78
2021/12/10 02:04:09;;;;;;;93.10;42.60;;;;;;;2.14;82.23;99268.69;4988442;28;20409;-78
2021/12/10 02:06:35;;;;;;;98.53;42.55;;;;;;;2.05;82.41;99266.88;4991210;28;20375;-78
2021/12/10 02:09:00;;;;;;;93.47;41.58;;;;;;;2.05;82.90;99264.28;4991780;28;20129;-78
2021/12/10 02:11:26;;;;;;;100.50;44.28;;;;;;;2.10;82.37;99253.91;4990345;28;20026;-77
2021/12/10 02:13:51;;;;;;;95.13;42.08;;;;;;;2.18;82.44;99255.72;4989437;28;20034;-78
2021/12/10 02:16:17;;;;;;;94.30;43.83;;;;;;;2.14;81.78;99251.31;4991415;28;20157;-78
2021/12/10 02:18:43;;;;;;;97.25;43.95;;;;;;;2.14;82.02;99247.84;4994085;28;20038;-78
2021/12/10 02:21:08;;;;;;;95.05;43.17;;;;;;;2.17;82.61;99255.69;4995727;28;20089;-78
2021/12/10 02:23:37;;;;;;;93.05;40.30;;;;;;;2.20;81.94;99250.50;4994178;28;20042;-77
2021/12/10 02:26:08;;;;;;;94.53;41.42;;;;;;;2.11;82.24;99246.09;4994197;28;20437;-78
2021/12/10 02:28:34;;;;;;;87.15;40.72;;;;;;;2.13;82.88;99248.72;4995592;28;20038;-77
2021/12/10 02:31:00;;;;;;;90.78;40.70;;;;;;;2.15;82.25;99241.81;4992876;28;20053;-79
2021/12/10 02:33:26;;;;;;;109.30;45.05;;;;;;;2.13;82.79;99236.59;5002483;28;20120;-79
2021/12/10 02:35:52;;;;;;;97.53;41.63;;;;;;;2.08;82.72;99230.47;4992013;28;20069;-79
2021/12/10 02:38:19;;;;;;;91.03;40.92;;;;;;;2.10;82.74;99231.38;4995256;28;20120;-79
2021/12/10 02:40:46;;;;;;;108.03;45.03;;;;;;;2.06;82.65;99226.97;4991624;28;20093;-79
2021/12/10 02:43:13;;;;;;;102.20;43.85;;;;;;;2.07;82.70;99220.94;4991271;28;20030;-78
2021/12/10 02:45:46;;;;;;;104.13;42.60;;;;;;;1.95;82.71;99216.50;5001614;28;20544;-79
2021/12/10 02:48:13;;;;;;;93.50;43.85;;;;;;;1.97;83.12;99216.53;4991833;28;20057;-79
2021/12/10 02:50:38;;;;;;;101.25;44.00;;;;;;;1.97;82.73;99206.13;4995074;28;20097;-79
2021/12/10 02:53:06;;;;;;;100.13;42.58;;;;;;;1.91;82.86;99201.75;4995104;28;20117;-79
2021/12/10 02:55:33;;;;;;;96.80;43.63;;;;;;;1.88;83.43;99191.28;4994632;28;20030;-78
2021/12/10 02:58:05;;;;;;;95.70;42.72;;;;;;;1.88;83.25;99193.03;4994969;28;20039;-79
2021/12/10 03:00:35;;;;;;;96.65;43.03;;;;;;;1.94;83.11;99193.09;4986653;28;20031;-78
2021/12/10 03:03:01;;;;;;;88.35;41.33;;;;;;;1.97;82.85;99182.69;4991241;28;20049;-79
2021/12/10 03:05:27;;;;;;;92.45;40.60;;;;;;;2.01;82.75;99178.38;4990545;28;20125;-79
2021/12/10 03:07:52;;;;;;;92.32;41.00;;;;;;;1.94;82.53;99165.31;4994965;28;20129;-79
2021/12/10 03:10:24;;;;;;;87.30;41.72;;;;;;;1.92;83.01;99168.78;4994819;28;20057;-79
2021/12/10 03:12:50;;;;;;;103.25;42.20;;;;;;;1.93;82.75;99165.31;4994769;28;20100;-79
2021/12/10 03:15:17;;;;;;;97.45;42.50;;;;;;;1.90;82.49;99157.47;4994285;28;20124;-79
2021/12/10 03:17:44;;;;;;;111.13;40.65;;;;;;;1.72;82.57;99159.09;4994360;28;20065;-79
2021/12/10 03:20:13;;;;;;;93.88;40.58;;;;;;;1.72;82.92;99153.88;4994098;28;20182;-80
2021/12/10 03:22:39;;;;;;;105.30;44.13;;;;;;;1.66;82.79;99146.03;4993701;28;20045;-79
2021/12/10 03:25:06;;;;;;;109.70;45.72;;;;;;;1.57;83.09;99145.97;4994208;28;20198;-79
2021/12/10 03:27:32;;;;;;;106.53;46.05;;;;;;;1.50;83.57;99145.06;4991972;28;20030;-79
2021/12/10 03:29:57;;;;;;;110.45;44.40;;;;;;;1.54;83.40;99143.34;4993453;28;20123;-79
2021/12/10 03:32:28;;;;;;;96.65;41.60;;;;;;;1.52;83.32;99135.53;4994274;28;20030;-78
2021/12/10 03:34:58;;;;;;;96.53;39.42;;;;;;;1.47;83.36;99128.56;4993052;28;20401;-79
2021/12/10 03:37:24;;;;;;;103.82;43.60;;;;;;;1.45;83.31;99132.88;4994365;28;20038;-79
2021/12/10 03:39:51;;;;;;;101.80;41.58;;;;;;;1.46;83.36;99126.81;4994212;28;20054;-79
2021/12/10 03:42:17;;;;;;;96.65;39.97;;;;;;;1.45;83.48;99130.28;4994135;28;20058;-79
2021/12/10 03:44:43;;;;;;;98.65;41.67;;;;;;;1.40;83.38;99126.78;4993538;28;20069;-78
2021/12/10 03:47:10;;;;;;;114.47;46.70;;;;;;;1.39;83.89;99125.00;4993484;28;20128;-78
2021/12/10 03:49:37;;;;;;;92.35;41.55;;;;;;;1.38;83.43;99128.47;4994011;28;20034;-78
2021/12/10 03:52:06;;;;;;;95.05;39.05;;;;;;;1.34;83.66;99124.09;4993902;28;20477;-79
2021/12/10 03:54:32;;;;;;;114.00;45.33;;;;;;;1.27;83.74;99131.00;4993577;28;20093;-79
2021/12/10 03:56:57;;;;;;;101.18;43.30;;;;;;;1.28;83.91;99128.41;4992545;28;20034;-78
2021/12/10 03:59:24;;;;;;;90.65;38.97;;;;;;;1.33;83.74;99127.56;4993681;28;20042;-79
2021/12/10 04:01:55;;;;;;;98.18;39.60;;;;;;;1.33;83.56;99122.38;4993752;28;20057;-78
2021/12/10 04:04:26;;;;;;;93.28;40.03;;;;;;;1.24;83.92;99124.03;5000562;28;20117;-79
2021/12/10 04:06:52;;;;;;;89.53;37.90;;;;;;;1.24;83.79;99120.56;4993491;28;20129;-79
2021/12/10 04:09:18;;;;;;;96.57;41.45;;;;;;;1.23;83.90;99130.13;4993671;28;20050;-78
2021/12/10 04:11:44;;;;;;;111.50;42.85;;;;;;;1.25;83.90;99133.56;4993535;28;20030;-79
2021/12/10 04:14:10;;;;;;;101.20;41.13;;;;;;;1.26;84.64;99134.47;4993378;28;20511;-79
2021/12/10 04:16:37;;;;;;;102.50;42.58;;;;;;;1.31;84.59;99132.78;4993206;28;20038;-78
2021/12/10 04:19:06;;;;;;;102.40;42.53;;;;;;;1.40;84.99;99137.19;4991321;28;20059;-78
2021/12/10 04:21:31;;;;;;;134.80;47.60;;;;;;;1.46;84.41;99129.41;4989486;28;20401;-79
2021/12/10 04:23:57;;;;;;;104.28;41.05;;;;;;;1.50;84.07;99129.47;4993257;28;20038;-79
2021/12/10 04:26:24;;;;;;;109.68;45.25;;;;;;;1.48;83.84;99125.09;4992961;28;20031;-79
2021/12/10 04:28:51;;;;;;;97.28;41.67;;;;;;;1.47;83.97;99141.56;4991968;28;20100;-79
2021/12/10 04:31:17;;;;;;;88.03;38.38;;;;;;;1.52;84.17;99150.28;4993583;28;20378;-79
2021/12/10 04:33:42;;;;;;;82.50;38.08;;;;;;;1.59;84.48;99146.84;4992471;28;20033;-79
2021/12/10 04:36:08;;;;;;;81.15;36.72;;;;;;;1.67;83.67;99146.91;4992735;28;20042;-78
2021/12/10 04:38:35;;;;;;;91.15;37.72;;;;;;;1.68;83.96;99149.53;4991813;28;20516;-80
2021/12/10 04:41:04;;;;;;;89.47;38.72;;;;;;;1.71;84.06;99148.69;4991867;28;20050;-79
2021/12/10 04:43:31;;;;;;;86.65;37.40;;;;;;;1.74;83.52;99154.78;4992956;28;20026;-80
2021/12/10 04:45:58;;;;;;;107.68;43.38;;;;;;;1.78;83.59;99145.25;4991447;28;20049;-79
2021/12/10 04:48:25;;;;;;;90.43;39.78;;;;;;;1.77;83.27;99142.66;4992468;28;20112;-78
2021/12/10 04:50:51;;;;;;;87.88;40.47;;;;;;;1.75;83.44;99130.50;4994156;28;20039;-78
2021/12/10 04:53:17;;;;;;;84.97;38.00;;;;;;;1.75;83.85;99125.28;4992911;28;20030;-78
2021/12/10 04:55:43;;;;;;;87.93;38.63;;;;;;;1.76;83.20;99131.38;4992692;28;20509;-77
2021/12/10 04:58:09;;;;;;;90.38;37.95;;;;;;;1.80;83.28;99129.66;4992097;28;20086;-78
2021/12/10 05:00:39;;;;;;;86.63;39.35;;;;;;;1.65;83.59;99128.72;4993527;28;20042;-78
2021/12/10 05:03:06;;;;;;;81.97;36.67;;;;;;;1.62;84.26;99126.06;4989153;28;20048;-78
2021/12/10 05:05:32;;;;;;;87.25;36.65;;;;;;;1.69;84.52;99130.47;4993729;28;20094;-78
2021/12/10 05:07:58;;;;;;;80.25;36.83;;;;;;;1.77;84.34;99125.31;4991680;28;20042;-78
2021/12/10 05:10:24;;;;;;;90.88;40.25;;;;;;;1.87;83.62;99128.84;4989235;28;20382;-78
2021/12/10 05:12:49;;;;;;;95.07;41.58;;;;;;;1.88;83.36;99115.84;4992756;28;20053;-79
2021/12/10 05:15:22;;;;;;;74.05;35.33;;;;;;;1.85;82.62;99114.97;4992521;28;20096;-78
2021/12/10 05:17:50;;;;;;;78.63;35.55;;;;;;;1.78;83.11;99113.16;4988587;28;20048;-78
2021/12/10 05:20:20;;;;;;;76.05;36.10;;;;;;;1.70;83.17;99103.59;4988743;28;20041;-80
2021/12/10 05:22:47;;;;;;;85.13;38.30;;;;;;;1.70;83.72;99102.72;4993819;28;20038;-79
2021/12/10 05:25:13;;;;;;;80.35;36.00;;;;;;;1.64;83.84;99095.75;4993402;28;20034;-78
2021/12/10 05:27:40;;;;;;;77.78;36.55;;;;;;;1.66;83.94;99095.75;4994079;28;20121;-79
2021/12/10 05:30:07;;;;;;;77.93;37.33;;;;;;;1.73;83.87;99087.16;4992464;28;20160;-79
2021/12/10 05:32:33;;;;;;;78.97;37.80;;;;;;;1.77;83.68;99088.91;4992607;28;20038;-79
2021/12/10 05:34:59;;;;;;;75.40;35.88;;;;;;;1.84;83.54;99093.28;4992390;28;20045;-79
2021/12/10 05:37:25;;;;;;;72.25;35.78;;;;;;;1.81;83.33;99079.38;4991739;28;20538;-79
2021/12/10 05:39:50;;;;;;;80.15;35.88;;;;;;;1.83;83.44;99085.44;4989914;28;20034;-79
2021/12/10 05:42:16;;;;;;;72.60;36.05;;;;;;;1.82;83.60;99083.72;4967458;28;20057;-79
2021/12/10 05:44:42;;;;;;;75.55;36.85;;;;;;;1.86;83.33;99088.06;4992258;28;20030;-79
2021/12/10 05:47:07;;;;;;;69.22;35.03;;;;;;;1.86;83.09;99081.16;4991426;28;20507;-79
2021/12/10 05:49:33;;;;;;;77.18;35.28;;;;;;;1.87;83.55;99085.50;4991248;28;20030;-79
2021/12/10 05:51:58;;;;;;;68.30;34.60;;;;;;;1.94;83.25;99086.41;4991676;28;20046;-79
2021/12/10 05:54:24;;;;;;;76.35;36.47;;;;;;;1.98;83.30;99090.75;4993164;28;20116;-79
2021/12/10 05:56:49;;;;;;;78.47;37.63;;;;;;;1.92;83.18;99085.53;4987342;28;20045;-80
2021/12/10 05:59:15;;;;;;;69.38;32.22;;;;;;;1.99;83.05;99092.47;4989442;28;20026;-80
2021/12/10 06:01:40;;;;;;;76.97;35.08;;;;;;;1.95;82.70;99090.72;4991992;28;20403;-80
2021/12/10 06:04:06;;;;;;;74.75;37.38;;;;;;;1.94;82.43;99089.88;4991843;28;20085;-78
2021/12/10 06:06:32;;;;;;;67.78;31.77;;;;;;;1.93;82.04;99071.63;4991974;28;20458;-80
2021/12/10 06:09:00;;;;;;;95.05;37.17;;;;;;;1.89;82.31;99075.97;4992382;28;20045;-79
2021/12/10 06:11:27;;;;;;;76.38;32.58;;;;;;;1.79;81.91;99068.09;4992626;28;20034;-79
2021/12/10 06:13:53;;;;;;;73.28;33.67;;;;;;;1.66;82.27;99074.97;4992609;28;20034;-78
2021/12/10 06:16:19;;;;;;;88.70;40.55;;;;;;;1.56;82.92;99065.34;4991786;28;20051;-80
2021/12/10 06:18:44;;;;;;;78.50;36.83;;;;;;;1.58;83.44;99061.91;4991784;28;20038;-80
2021/12/10 06:21:11;;;;;;;85.38;37.35;;;;;;;1.62;83.24;99061.03;4994242;28;20517;-77
2021/12/10 06:23:37;;;;;;;82.50;35.60;;;;;;;1.48;82.94;99062.69;4991605;28;20046;-77
2021/12/10 06:26:04;;;;;;;80.72;37.42;;;;;;;1.39;83.31;99054.81;4991369;28;20132;-77
2021/12/10 06:28:31;;;;;;;86.95;38.03;;;;;;;1.40;83.67;99060.06;4986349;28;20045;-77
2021/12/10 06:30:57;;;;;;;77.22;36.80;;;;;;;1.45;83.92;99053.16;4991613;28;20042;-77
2021/12/10 06:33:27;;;;;;;74.57;32.17;;;;;;;1.47;83.54;99051.44;4990553;28;20100;-77
2021/12/10 06:35:55;;;;;;;78.82;34.65;;;;;;;1.46;83.49;99052.28;4991321;28;20081;-77
2021/12/10 06:38:22;;;;;;;73.65;34.58;;;;;;;1.41;84.12;99050.50;4991646;28;20088;-77
2021/12/10 06:40:49;;;;;;;86.25;38.53;;;;;;;1.38;84.11;99051.38;4998331;28;20042;-77
2021/12/10 06:43:15;;;;;;;80.85;35.10;;;;;;;1.39;84.25;99050.53;4991638;28;20042;-77
2021/12/10 06:45:42;;;;;;;86.32;39.15;;;;;;;1.36;84.34;99037.47;4991205;28;20096;-77
2021/12/10 06:48:09;;;;;;;74.55;35.47;;;;;;;1.39;84.52;99034.03;4991950;28;20434;-77
2021/12/10 06:50:38;;;;;;;75.72;36.92;;;;;;;1.43;84.23;99046.19;4991717;28;20038;-77
2021/12/10 06:53:04;;;;;;;76.85;35.67;;;;;;;1.43;83.81;99035.81;4991580;28;20693;-77
2021/12/10 06:55:31;;;;;;;82.38;37.92;;;;;;;1.44;83.91;99033.22;4991357;28;20030;-77
2021/12/10 06:57:57;;;;;;;83.97;34.95;;;;;;;1.49;83.81;99038.44;4991673;28;20043;-77
2021/12/10 07:00:36;;;;;;;80.68;38.03;;;;;;;1.47;83.62;99029.78;4990167;28;20404;-77
2021/12/10 07:03:02;;;;;;;80.20;34.33;;;;;;;1.38;82.98;99033.16;4991548;28;20132;-77
2021/12/10 07:05:27;;;;;;;81.32;35.58;;;;;;;1.29;84.06;99033.97;4993154;28;20105;-77
2021/12/10 07:07:52;;;;;;;83.10;36.85;;;;;;;1.29;84.07;99036.59;4993855;28;20536;-77
2021/12/10 07:10:18;;;;;;;77.53;35.22;;;;;;;1.31;83.47;99032.28;4992949;28;20034;-77
2021/12/10 07:12:45;;;;;;;68.65;31.92;;;;;;;1.30;83.28;99030.50;4992936;28;20400;-77
2021/12/10 07:15:13;;;;;;;71.28;33.10;;;;;;;1.27;83.04;99029.63;4991759;28;20038;-77
2021/12/10 07:17:40;;;;;;;65.78;31.80;;;;;;;1.18;83.29;99025.25;4993453;28;20045;-76
2021/12/10 07:20:07;;;;;;;73.18;33.90;;;;;;;1.05;83.63;99039.00;4991994;28;20034;-77
2021/12/10 07:22:33;;;;;;;76.18;35.20;;;;;;;1.02;83.65;99020.78;4994053;28;20046;-77
2021/12/10 07:24:59;;;;;;;79.72;34.85;;;;;;;0.99;82.73;99029.41;4994120;28;20027;-77
2021/12/10 07:27:24;;;;;;;66.45;31.27;;;;;;;0.90;83.13;99020.69;4994601;28;20554;-77
2021/12/10 07:29:50;;;;;;;65.78;30.48;;;;;;;0.87;83.96;99022.41;4994659;28;20045;-77
2021/12/10 07:32:15;;;;;;;62.08;29.17;;;;;;;0.87;83.74;99016.34;4994792;28;20038;-77
2021/12/10 07:34:40;;;;;;;69.13;29.42;;;;;;;0.83;83.77;99018.03;4994394;28;20038;-77
2021/12/10 07:37:08;;;;;;;66.95;29.70;;;;;;;0.78;84.13;99006.72;4993245;28;20086;-77
2021/12/10 07:39:34;;;;;;;65.25;29.35;;;;;;;0.82;84.38;98998.09;4994551;28;20404;-78
2021/12/10 07:42:00;;;;;;;58.28;29.35;;;;;;;0.87;84.20;98996.41;4994291;28;20049;-77
2021/12/10 07:44:27;;;;;;;55.60;27.40;;;;;;;0.92;84.41;98995.56;4992675;28;20066;-76
2021/12/10 07:46:55;;;;;;;70.22;28.15;;;;;;;0.93;84.30;98994.72;4992707;28;20030;-76
2021/12/10 07:49:28;;;;;;;61.20;29.80;;;;;;;0.97;84.16;98993.88;4994465;28;20504;-77
2021/12/10 07:51:54;;;;;;;55.38;29.40;;;;;;;1.00;84.24;98993.94;4993104;28;20045;-77
2021/12/10 07:54:20;;;;;;;53.75;28.40;;;;;;;1.01;84.27;98999.13;4993177;28;20519;-77
2021/12/10 07:56:45;;;;;;;52.70;28.00;;;;;;;1.02;84.68;98987.88;4988700;28;20038;-77
2021/12/10 07:59:11;;;;;;;47.72;26.45;;;;;;;1.10;84.31;98990.50;4994087;28;20485;-77
2021/12/10 08:01:36;;;;;;;59.67;29.67;;;;;;;1.23;84.12;98996.66;4985802;28;20030;-77
2021/12/10 08:04:03;;;;;;;62.08;32.15;;;;;;;1.29;84.06;98992.41;4990712;28;20069;-77
2021/12/10 08:06:31;;;;;;;61.83;31.35;;;;;;;1.30;83.74;98986.31;4990325;28;20039;-77
2021/12/10 08:08:57;;;;;;;50.97;29.33;;;;;;;1.28;83.67;98980.28;4993495;28;20049;-77
2021/12/10 08:11:23;;;;;;;50.08;26.02;;;;;;;1.22;83.64;98988.00;4993864;28;20050;-77
2021/12/10 08:13:49;;;;;;;42.17;22.48;;;;;;;1.25;84.08;98980.22;4993805;28;20097;-77
2021/12/10 08:16:15;;;;;;;48.30;24.42;;;;;;;1.31;83.27;98969.88;4993328;28;20038;-77
2021/12/10 08:18:41;;;;;;;44.88;23.00;;;;;;;1.28;83.72;98967.28;4992162;28;20060;-77
2021/12/10 08:21:07;;;;;;;41.80;22.80;;;;;;;1.36;83.99;98969.91;4991911;28;20042;-77
2021/12/10 08:23:35;;;;;;;44.30;24.27;;;;;;;1.44;83.77;98963.03;4993532;28;20049;-77
2021/12/10 08:26:01;;;;;;;37.28;20.85;;;;;;;1.60;83.66;98961.38;4993232;28;20053;-77
2021/12/10 08:28:27;;;;;;;36.22;20.90;;;;;;;1.73;83.23;98960.56;4993499;28;20397;-77
2021/12/10 08:30:55;;;;;;;42.13;23.92;;;;;;;1.87;82.64;98972.75;4993575;28;20099;-77
2021/12/10 08:33:21;;;;;;;46.45;25.13;;;;;;;1.90;82.64;98967.56;4993515;28;20026;-77
2021/12/10 08:35:58;;;;;;;36.33;21.23;;;;;;;1.92;82.39;98961.50;4991689;28;20405;-77
2021/12/10 08:38:27;;;;;;;43.17;23.13;;;;;;;1.85;82.24;98961.47;4998029;28;20038;-77
2021/12/10 08:40:59;;;;;;;41.08;23.00;;;;;;;1.91;82.85;98970.19;4993470;28;20042;-77
2021/12/10 08:43:26;;;;;;;45.03;23.92;;;;;;;1.98;82.15;98966.72;4993035;28;20445;-76
2021/12/10 08:45:53;;;;;;;39.58;23.75;;;;;;;2.01;81.78;98960.66;4987844;28;20153;-77
2021/12/10 08:48:20;;;;;;;38.75;22.88;;;;;;;2.13;81.63;98955.50;4986978;28;20045;-76
2021/12/10 08:50:46;;;;;;;37.28;21.27;;;;;;;2.21;80.98;98952.91;4999446;28;20129;-77
2021/12/10 08:53:13;;;;;;;34.78;20.75;;;;;;;2.26;80.90;98950.31;4998753;28;20031;-77
2021/12/10 08:55:45;;;;;;;35.72;21.00;;;;;;;2.27;80.35;98960.72;4988388;28;20038;-77
2021/12/10 08:58:12;;;;;;;35.30;21.15;;;;;;;2.23;80.93;98960.69;4991355;28;20045;-76
2021/12/10 09:00:40;;;;;;;33.85;20.45;;;;;;;2.32;81.01;98958.13;4992331;28;20063;-77
2021/12/10 09:03:06;;;;;;;29.73;16.90;;;;;;;2.27;80.98;98952.91;4990397;28;20058;-77
2021/12/10 09:05:33;;;;;;;32.03;18.33;;;;;;;2.31;80.79;98954.66;4991341;28;20045;-77
2021/12/10 09:07:59;;;;;;;31.83;19.40;;;;;;;2.31;80.88;98949.47;4991743;28;20559;-77
2021/12/10 09:10:28;;;;;;;26.70;16.75;;;;;;;2.48;81.41;98951.22;4989527;28;20109;-77
2021/12/10 09:12:55;;;;;;;30.48;18.23;;;;;;;2.45;80.90;98946.00;4991058;28;20042;-77
2021/12/10 09:15:23;;;;;;;35.25;19.52;;;;;;;2.50;81.13;98939.94;5001026;28;20424;-77
2021/12/10 09:17:52;;;;;;;33.15;20.20;;;;;;;2.56;81.19;98945.13;4992789;28;20041;-77
2021/12/10 09:20:23;;;;;;;27.23;17.30;;;;;;;2.66;80.68;98940.81;4995102;28;20122;-77
2021/12/10 09:22:49;;;;;;;29.95;17.35;;;;;;;2.77;80.73;98938.19;4990193;28;20526;-77
2021/12/10 09:25:16;;;;;;;34.65;20.83;;;;;;;2.79;80.51;98931.25;4988830;28;20034;-77
2021/12/10 09:27:41;;;;;;;25.95;16.55;;;;;;;2.82;80.10;98939.91;4988848;28;20046;-77
2021/12/10 09:30:10;;;;;;;28.50;17.88;;;;;;;2.87;80.12;98928.63;4991263;28;20038;-77
2021/12/10 09:32:36;;;;;;;29.70;17.58;;;;;;;2.93;79.96;98926.03;4989766;28;20092;-77
2021/12/10 09:35:05;;;;;;;28.17;18.00;;;;;;;2.93;80.28;98924.28;4990241;28;20034;-77
2021/12/10 09:37:32;;;;;;;28.73;17.25;;;;;;;3.05;80.03;98923.41;4989079;28;20524;-77
2021/12/10 09:39:57;;;;;;;29.73;17.92;;;;;;;3.08;79.19;98919.03;4990428;28;20034;-77
2021/12/10 09:42:22;;;;;;;31.10;16.67;;;;;;;3.18;79.42;98924.25;4989652;28;20562;-77
2021/12/10 09:44:51;;;;;;;26.90;16.75;;;;;;;3.28;79.48;98912.94;4991529;28;20034;-77
2021/12/10 09:47:18;;;;;;;28.20;17.30;;;;;;;3.38;79.06;98919.88;4992451;28;20378;-77
2021/12/10 09:49:48;;;;;;;26.65;18.20;;;;;;;3.43;78.76;98910.28;4991384;28;20037;-76
2021/12/10 09:52:16;;;;;;;27.58;16.95;;;;;;;3.42;78.31;98912.88;4992656;28;20177;-78
2021/12/10 09:54:42;;;;;;;27.42;17.42;;;;;;;3.31;78.19;98912.91;4992134;28;20041;-77
2021/12/10 09:57:18;;;;;;;37.92;22.63;;;;;;;3.40;79.14;98904.19;4992570;28;20035;-76
2021/12/10 09:59:46;;;;;;;45.65;26.27;;;;;;;3.47;78.80;98898.94;4992066;28;20045;-77
2021/12/10 10:02:12;;;;;;;34.90;21.77;;;;;;;3.49;78.58;98910.25;4989045;28;20041;-77
2021/12/10 10:04:40;;;;;;;30.50;17.30;;;;;;;3.43;78.00;98902.47;4990922;28;20038;-77
2021/12/10 10:07:12;;;;;;;26.45;16.30;;;;;;;3.34;78.53;98902.47;4983706;28;20050;-77
2021/12/10 10:09:38;;;;;;;29.00;16.42;;;;;;;3.28;78.88;98900.75;4999690;28;20038;-77
2021/12/10 10:12:12;;;;;;;28.42;16.35;;;;;;;3.33;79.09;98898.16;4987115;28;20092;-77
2021/12/10 10:14:38;;;;;;;25.60;15.40;;;;;;;3.44;79.11;98896.34;4990822;28;20950;-77
2021/12/10 10:17:06;;;;;;;24.17;15.05;;;;;;;3.55;78.27;98895.44;4990596;28;20030;-77
2021/12/10 10:19:32;;;;;;;28.65;17.15;;;;;;;3.53;78.04;98897.19;4990378;28;20100;-78
2021/12/10 10:21:58;;;;;;;27.75;16.52;;;;;;;3.41;78.54;98895.50;4989279;28;20042;-78
2021/12/10 10:24:27;;;;;;;28.15;17.38;;;;;;;3.53;78.66;98889.38;4988849;28;20516;-77
2021/12/10 10:26:57;;;;;;;38.33;21.65;;;;;;;3.65;77.93;98878.88;4990471;28;20041;-77
2021/12/10 10:29:26;;;;;;;29.83;20.00;;;;;;;3.68;78.26;98863.22;4991300;28;20522;-77
2021/12/10 10:31:56;;;;;;;29.33;17.95;;;;;;;3.80;77.48;98868.38;4990282;28;20042;-77
2021/12/10 10:34:24;;;;;;;31.35;18.77;;;;;;;3.87;77.46;98862.22;4991494;28;20030;-77
2021/12/10 10:36:50;;;;;;;31.38;18.27;;;;;;;3.91;77.07;98858.72;4992281;28;20034;-78
2021/12/10 10:39:22;;;;;;;26.95;16.48;;;;;;;3.97;77.09;98864.78;4993898;28;20117;-77
2021/12/10 10:41:51;;;;;;;26.42;16.85;;;;;;;3.95;76.42;98865.66;4996022;28;20077;-78
2021/12/10 10:44:17;;;;;;;27.02;17.52;;;;;;;4.03;76.51;98860.38;4995803;28;20030;-77
2021/12/10 10:46:44;;;;;;;25.48;15.65;;;;;;;4.09;76.75;98860.38;4990208;28;20038;-77
2021/12/10 10:49:09;;;;;;;22.27;15.20;;;;;;;4.13;76.41;98861.19;4992370;28;20096;-78
2021/12/10 10:51:40;;;;;;;27.05;17.38;;;;;;;4.13;75.90;98855.97;4994454;28;20121;-77
2021/12/10 10:54:11;;;;;;;28.90;17.90;;;;;;;4.15;76.19;98852.47;4992449;28;20035;-77
2021/12/10 10:56:43;;;;;;;25.65;16.52;;;;;;;4.24;75.72;98855.91;4992418;28;20049;-76
2021/12/10 10:59:17;;;;;;;23.27;15.10;;;;;;;4.19;75.58;98855.94;4995991;28;20045;-77
2021/12/10 11:01:58;;;;;;;25.80;14.10;;;;;;;4.13;75.65;98850.75;4988223;28;20053;-77
2021/12/10 11:04:30;;;;;;;24.23;16.15;;;;;;;4.22;76.01;98855.94;4996217;28;20042;-78
2021/12/10 11:07:04;;;;;;;27.83;16.75;;;;;;;4.25;76.26;98860.25;4994054;28;20040;-77
2021/12/10 11:09:32;;;;;;;22.73;14.48;;;;;;;4.23;75.96;98854.19;4992345;28;20096;-77
2021/12/10 11:12:07;;;;;;;23.08;14.70;;;;;;;4.22;75.60;98855.94;4993812;28;20042;-77
2021/12/10 11:14:42;;;;;;;20.25;14.55;;;;;;;4.22;75.85;98852.44;4990573;28;20030;-78
2021/12/10 11:17:11;;;;;;;21.98;15.55;;;;;;;4.17;76.22;98848.13;4991866;28;20447;-77
2021/12/10 11:19:36;;;;;;;22.80;14.85;;;;;;;4.08;76.07;98847.31;4993814;28;20030;-77
2021/12/10 11:22:11;;;;;;;18.95;12.38;;;;;;;4.04;76.07;98849.09;4993751;28;20064;-77
2021/12/10 11:24:45;;;;;;;21.83;13.50;;;;;;;4.08;76.12;98848.16;4989374;28;20504;-77
2021/12/10 11:27:36;;;;;;;20.77;13.38;;;;;;;4.04;76.70;98841.25;4991123;28;20083;-77
2021/12/10 11:30:01;;;;;;;20.55;13.93;;;;;;;4.17;76.69;98842.03;4991469;28;20081;-77
2021/12/10 11:32:40;;;;;;;32.88;20.55;;;;;;;4.30;76.26;98846.28;5001426;28;20101;-77
2021/12/10 11:35:14;;;;;;;31.60;19.38;;;;;;;4.44;76.21;98846.16;4989869;28;20477;-77